createdAt,value
2023-05-08T00:00:21.158Z,41.73
2023-05-08T00:01:21.186Z,60.91
2023-05-08T00:02:21.188Z,45.28
2023-05-08T00:03:21.147Z,52.05
2023-05-08T00:04:21.159Z,67.03
2023-05-08T00:05:21.076Z,40.61
2023-05-08T00:06:21.099Z,41.73
2023-05-08T00:07:21.065Z,44.63
2023-05-08T00:08:21.066Z,59.62
2023-05-08T00:09:21.049Z,53.01
2023-05-08T00:10:21.030Z,40.12
2023-05-08T00:11:21.026Z,39.64
2023-05-08T00:12:20.992Z,46.89
2023-05-08T00:13:21.173Z,42.22
2023-05-08T00:14:21.289Z,42.38
2023-05-08T00:15:20.978Z,47.37
2023-05-08T00:16:20.998Z,53.17
2023-05-08T00:17:21.069Z,40.61
2023-05-08T00:18:20.939Z,41.25
2023-05-08T00:19:20.934Z,39.64
2023-05-08T00:20:20.944Z,41.57
2023-05-08T00:21:20.931Z,41.41
2023-05-08T00:22:20.938Z,49.31
2023-05-08T00:23:20.883Z,40.77
2023-05-08T00:24:20.886Z,41.09
2023-05-08T00:25:20.871Z,40.93
2023-05-08T00:26:20.948Z,42.06
2023-05-08T00:27:20.952Z,40.28
2023-05-08T00:28:20.831Z,40.44
2023-05-08T00:29:20.861Z,42.22
2023-05-08T00:30:20.853Z,39.32
2023-05-08T00:31:20.818Z,39.96
2023-05-08T00:32:21.050Z,46.41
2023-05-08T00:33:20.854Z,39.48
2023-05-08T00:34:20.858Z,39.64
2023-05-08T00:35:20.766Z,50.76
2023-05-08T00:36:20.769Z,39.64
2023-05-08T00:37:20.750Z,46.89
2023-05-08T00:38:20.782Z,39.96
2023-05-08T00:39:20.744Z,40.28
2023-05-08T00:40:20.755Z,41.57
2023-05-08T00:41:20.722Z,41.89
2023-05-08T00:42:20.714Z,47.86
2023-05-08T00:43:20.710Z,46.08
2023-05-08T00:44:20.696Z,48.18
2023-05-08T00:45:20.681Z,40.28
2023-05-08T00:46:20.699Z,47.05
2023-05-08T00:47:20.684Z,49.31
2023-05-08T00:48:20.631Z,41.41
2023-05-08T00:49:20.686Z,45.28
2023-05-08T00:50:20.615Z,39.64
2023-05-08T00:51:20.671Z,41.41
2023-05-08T00:52:20.602Z,75.25
2023-05-08T00:53:20.626Z,42.70
2023-05-08T00:54:20.588Z,40.61
2023-05-08T00:55:20.636Z,40.77
2023-05-08T00:56:20.594Z,40.93
2023-05-08T00:57:21.227Z,45.12
2023-05-08T00:58:20.553Z,45.60
2023-05-08T00:59:20.549Z,48.34
2023-05-08T01:00:20.508Z,45.28
2023-05-08T01:01:20.530Z,39.64
2023-05-08T01:02:20.560Z,40.61
2023-05-08T01:03:20.623Z,39.48
2023-05-08T01:04:20.481Z,40.28
2023-05-08T01:05:20.635Z,54.62
2023-05-08T01:06:20.466Z,39.32
2023-05-08T01:07:20.485Z,40.44
2023-05-08T01:08:20.465Z,39.16
2023-05-08T01:09:20.474Z,44.96
2023-05-08T01:10:20.459Z,43.67
2023-05-08T01:11:20.539Z,42.06
2023-05-08T01:12:20.482Z,41.57
2023-05-08T01:13:20.606Z,51.08
2023-05-08T01:14:20.402Z,48.50
2023-05-08T01:15:20.441Z,38.99
2023-05-08T01:16:20.426Z,40.77
2023-05-08T01:17:20.399Z,39.96
2023-05-08T01:18:20.350Z,54.46
2023-05-08T01:19:20.363Z,48.34
2023-05-08T01:20:20.351Z,39.16
2023-05-08T01:21:20.321Z,40.12
2023-05-08T01:22:20.315Z,48.82
2023-05-08T01:23:20.347Z,46.89
2023-05-08T01:24:20.873Z,56.40
2023-05-08T01:25:20.262Z,64.13
2023-05-08T01:26:20.300Z,39.80
2023-05-08T01:27:20.294Z,56.24
2023-05-08T01:28:20.266Z,41.89
2023-05-08T01:29:20.394Z,40.28
2023-05-08T01:30:20.224Z,39.96
2023-05-08T01:31:20.292Z,40.61
2023-05-08T01:32:20.222Z,45.44
2023-05-08T01:33:20.381Z,42.70
2023-05-08T01:34:20.240Z,40.77
2023-05-08T01:35:20.208Z,47.53
2023-05-08T01:36:20.167Z,44.96
2023-05-08T01:37:20.177Z,43.02
2023-05-08T01:38:21.022Z,46.41
2023-05-08T01:39:20.178Z,43.18
2023-05-08T01:40:20.152Z,48.18
2023-05-08T01:41:20.148Z,41.57
2023-05-08T01:42:20.162Z,40.28
2023-05-08T01:43:20.154Z,39.80
2023-05-08T01:44:20.125Z,41.25
2023-05-08T01:45:20.114Z,42.54
2023-05-08T01:46:20.132Z,41.73
2023-05-08T01:47:20.112Z,40.77
2023-05-08T01:48:20.060Z,40.77
2023-05-08T01:49:20.097Z,42.54
2023-05-08T01:50:20.065Z,42.86
2023-05-08T01:51:20.052Z,40.77
2023-05-08T01:52:20.024Z,41.73
2023-05-08T01:53:19.995Z,46.89
2023-05-08T01:54:20.025Z,44.96
2023-05-08T01:55:19.999Z,55.27
2023-05-08T01:56:20.039Z,44.96
2023-05-08T01:57:19.980Z,48.34
2023-05-08T01:58:20.731Z,62.04
2023-05-08T01:59:19.988Z,44.47
2023-05-08T02:00:19.937Z,41.57
2023-05-08T02:01:20.052Z,42.54
2023-05-08T02:02:19.964Z,41.25
2023-05-08T02:03:19.957Z,56.24
2023-05-08T02:04:19.956Z,40.61
2023-05-08T02:05:19.875Z,48.34
2023-05-08T02:06:19.903Z,55.75
2023-05-08T02:07:19.885Z,58.65
2023-05-08T02:08:19.924Z,50.92
2023-05-08T02:09:19.859Z,43.02
2023-05-08T02:10:19.874Z,51.08
2023-05-08T02:11:19.895Z,43.02
2023-05-08T02:12:19.988Z,41.57
2023-05-08T02:13:19.938Z,43.34
2023-05-08T02:14:19.810Z,41.25
2023-05-08T02:15:19.799Z,43.67
2023-05-08T02:16:19.838Z,47.53
2023-05-08T02:17:19.784Z,42.06
2023-05-08T02:18:19.752Z,40.93
2023-05-08T02:19:19.793Z,41.89
2023-05-08T02:20:19.767Z,48.50
2023-05-08T02:21:19.751Z,41.73
2023-05-08T02:22:19.747Z,56.72
2023-05-08T02:23:19.730Z,48.82
2023-05-08T02:24:19.707Z,44.47
2023-05-08T02:25:19.704Z,59.62
2023-05-08T02:26:19.678Z,43.99
2023-05-08T02:27:19.667Z,43.99
2023-05-08T02:28:19.668Z,41.89
2023-05-08T02:29:19.656Z,41.89
2023-05-08T02:30:19.689Z,41.57
2023-05-08T02:31:19.630Z,57.69
2023-05-08T02:32:19.658Z,53.17
2023-05-08T02:33:19.626Z,56.24
2023-05-08T02:34:19.611Z,46.89
2023-05-08T02:35:19.627Z,60.26
2023-05-08T02:36:19.647Z,50.60
2023-05-08T02:37:19.715Z,70.09
2023-05-08T02:38:19.553Z,49.47
2023-05-08T02:39:19.581Z,47.53
2023-05-08T02:40:19.558Z,59.46
2023-05-08T02:41:19.529Z,44.96
2023-05-08T02:42:19.586Z,42.86
2023-05-08T02:43:19.536Z,44.31
2023-05-08T02:44:19.570Z,50.60
2023-05-08T02:45:19.579Z,57.85
2023-05-08T02:46:19.540Z,52.69
2023-05-08T02:47:19.488Z,44.15
2023-05-08T02:48:19.544Z,53.98
2023-05-08T02:49:19.438Z,51.08
2023-05-08T02:50:19.451Z,48.98
2023-05-08T02:51:19.457Z,48.18
2023-05-08T02:52:19.408Z,46.73
2023-05-08T02:53:19.389Z,50.11
2023-05-08T02:54:19.411Z,49.95
2023-05-08T02:55:19.418Z,50.27
2023-05-08T02:56:19.896Z,58.97
2023-05-08T02:57:19.376Z,52.05
2023-05-08T02:58:19.384Z,59.14
2023-05-08T02:59:19.358Z,70.09
2023-05-08T03:00:19.329Z,48.02
2023-05-08T03:01:19.403Z,52.53
2023-05-08T03:02:19.357Z,52.69
2023-05-08T03:03:19.475Z,47.05
2023-05-08T03:04:19.312Z,64.45
2023-05-08T03:05:19.324Z,51.24
2023-05-08T03:06:19.330Z,55.27
2023-05-08T03:07:19.316Z,54.46
2023-05-08T03:08:19.282Z,55.59
2023-05-08T03:09:19.243Z,57.85
2023-05-08T03:10:19.266Z,58.49
2023-05-08T03:11:19.314Z,49.79
2023-05-08T03:12:19.308Z,56.56
2023-05-08T03:13:19.427Z,51.88
2023-05-08T03:14:19.874Z,47.37
2023-05-08T03:15:19.185Z,49.79
2023-05-08T03:16:19.232Z,54.79
2023-05-08T03:17:19.174Z,65.42
2023-05-08T03:18:19.236Z,60.10
2023-05-08T03:19:20.348Z,58.33
2023-05-08T03:20:19.172Z,54.62
2023-05-08T03:21:19.127Z,54.46
2023-05-08T03:22:19.105Z,61.55
2023-05-08T03:23:19.061Z,68.80
2023-05-08T03:24:19.108Z,64.78
2023-05-08T03:25:19.094Z,65.74
2023-05-08T03:26:19.079Z,79.12
2023-05-08T03:27:19.006Z,68.96
2023-05-08T03:28:19.063Z,67.03
2023-05-08T03:29:19.234Z,54.95
2023-05-08T03:30:19.050Z,55.43
2023-05-08T03:31:19.063Z,60.59
2023-05-08T03:32:19.027Z,57.85
2023-05-08T03:33:18.988Z,66.23
2023-05-08T03:34:19.059Z,52.37
2023-05-08T03:35:18.950Z,57.20
2023-05-08T03:36:18.952Z,59.46
2023-05-08T03:37:18.977Z,60.59
2023-05-08T03:38:18.989Z,59.94
2023-05-08T03:39:19.107Z,55.27
2023-05-08T03:40:18.915Z,56.24
2023-05-08T03:41:18.885Z,49.79
2023-05-08T03:42:18.876Z,63.16
2023-05-08T03:43:18.890Z,55.75
2023-05-08T03:44:18.870Z,56.56
2023-05-08T03:45:18.836Z,58.81
2023-05-08T03:46:18.844Z,57.36
2023-05-08T03:47:18.846Z,65.58
2023-05-08T03:48:18.814Z,63.00
2023-05-08T03:49:18.845Z,59.30
2023-05-08T03:50:18.776Z,53.82
2023-05-08T03:51:18.749Z,63.16
2023-05-08T03:52:18.781Z,67.03
2023-05-08T03:53:18.765Z,66.39
2023-05-08T03:54:18.772Z,56.72
2023-05-08T03:55:18.714Z,59.14
2023-05-08T03:56:18.785Z,55.11
2023-05-08T03:57:18.708Z,55.75
2023-05-08T03:58:18.695Z,64.13
2023-05-08T03:59:18.714Z,64.45
2023-05-08T04:00:18.695Z,53.66
2023-05-08T04:01:18.656Z,56.88
2023-05-08T04:02:18.763Z,52.21
2023-05-08T04:03:18.720Z,69.29
2023-05-08T04:04:18.740Z,54.95
2023-05-08T04:05:18.646Z,60.59
2023-05-08T04:06:18.660Z,60.75
2023-05-08T04:07:18.605Z,63.49
2023-05-08T04:08:18.674Z,59.62
2023-05-08T04:09:18.573Z,58.49
2023-05-08T04:10:18.647Z,59.30
2023-05-08T04:11:18.599Z,61.71
2023-05-08T04:12:18.578Z,63.49
2023-05-08T04:13:18.672Z,53.82
2023-05-08T04:14:18.617Z,61.71
2023-05-08T04:15:18.548Z,69.93
2023-05-08T04:16:18.562Z,57.69
2023-05-08T04:17:18.584Z,55.91
2023-05-08T04:18:18.482Z,61.07
2023-05-08T04:19:18.531Z,57.36
2023-05-08T04:20:18.571Z,58.97
2023-05-08T04:21:18.467Z,64.61
2023-05-08T04:22:18.458Z,52.37
2023-05-08T04:23:18.471Z,55.91
2023-05-08T04:24:18.434Z,55.91
2023-05-08T04:25:18.475Z,69.61
2023-05-08T04:26:18.443Z,59.30
2023-05-08T04:27:18.397Z,54.62
2023-05-08T04:28:18.390Z,55.91
2023-05-08T04:29:18.390Z,59.94
2023-05-08T04:30:18.406Z,56.07
2023-05-08T04:31:18.459Z,62.52
2023-05-08T04:32:18.434Z,59.94
2023-05-08T04:33:18.416Z,65.26
2023-05-08T04:34:18.334Z,54.62
2023-05-08T04:35:18.580Z,70.09
2023-05-08T04:36:18.353Z,68.32
2023-05-08T04:37:18.298Z,53.50
2023-05-08T04:38:18.356Z,64.29
2023-05-08T04:39:18.341Z,61.07
2023-05-08T04:40:18.297Z,70.58
2023-05-08T04:41:18.309Z,59.62
2023-05-08T04:42:18.282Z,70.90
2023-05-08T04:43:18.265Z,56.72
2023-05-08T04:44:18.310Z,51.88
2023-05-08T04:45:18.283Z,56.88
2023-05-08T04:46:18.389Z,59.78
2023-05-08T04:47:18.245Z,55.91
2023-05-08T04:48:18.225Z,57.52
2023-05-08T04:49:18.222Z,61.39
2023-05-08T04:50:18.186Z,66.87
2023-05-08T04:51:18.159Z,60.75
2023-05-08T04:52:18.244Z,52.69
2023-05-08T04:53:18.307Z,57.52
2023-05-08T04:54:18.174Z,61.87
2023-05-08T04:55:18.125Z,67.51
2023-05-08T04:56:18.110Z,62.68
2023-05-08T04:57:18.543Z,66.23
2023-05-08T04:58:18.094Z,60.26
2023-05-08T04:59:18.099Z,61.23
2023-05-08T05:00:18.164Z,56.07
2023-05-08T05:01:18.084Z,63.49
2023-05-08T05:02:18.243Z,67.03
2023-05-08T05:03:18.098Z,60.42
2023-05-08T05:04:18.051Z,53.82
2023-05-08T05:05:18.058Z,61.07
2023-05-08T05:06:19.031Z,60.91
2023-05-08T05:07:17.998Z,67.51
2023-05-08T05:08:18.114Z,69.61
2023-05-08T05:09:17.967Z,63.16
2023-05-08T05:10:17.970Z,64.78
2023-05-08T05:11:17.986Z,60.59
2023-05-08T05:12:17.957Z,60.75
2023-05-08T05:13:18.047Z,56.56
2023-05-08T05:14:17.945Z,60.42
2023-05-08T05:15:17.909Z,62.52
2023-05-08T05:16:17.950Z,60.59
2023-05-08T05:17:17.923Z,59.46
2023-05-08T05:18:17.923Z,60.91
2023-05-08T05:19:17.903Z,59.78
2023-05-08T05:20:17.894Z,69.61
2023-05-08T05:21:17.932Z,69.77
2023-05-08T05:22:17.860Z,59.62
2023-05-08T05:23:17.861Z,61.39
2023-05-08T05:24:17.852Z,72.83
2023-05-08T05:25:17.870Z,68.16
2023-05-08T05:26:17.841Z,60.42
2023-05-08T05:27:19.949Z,61.71
2023-05-08T05:28:17.846Z,61.87
2023-05-08T05:29:17.791Z,58.33
2023-05-08T05:30:17.788Z,63.00
2023-05-08T05:31:17.891Z,62.04
2023-05-08T05:32:17.787Z,68.32
2023-05-08T05:33:17.750Z,67.35
2023-05-08T05:34:17.793Z,64.13
2023-05-08T05:35:17.726Z,67.84
2023-05-08T05:36:17.774Z,60.42
2023-05-08T05:37:17.690Z,65.58
2023-05-08T05:38:17.710Z,59.94
2023-05-08T05:39:17.674Z,65.42
2023-05-08T05:40:17.768Z,64.13
2023-05-08T05:41:17.648Z,63.49
2023-05-08T05:42:17.791Z,62.04
2023-05-08T05:43:17.678Z,60.26
2023-05-08T05:44:17.646Z,66.23
2023-05-08T05:45:17.627Z,72.03
2023-05-08T05:46:17.690Z,59.30
2023-05-08T05:47:17.729Z,65.26
2023-05-08T05:48:18.308Z,68.48
2023-05-08T05:49:17.572Z,60.10
2023-05-08T05:50:17.652Z,70.58
2023-05-08T05:51:17.640Z,62.68
2023-05-08T05:52:17.620Z,63.49
2023-05-08T05:53:17.522Z,63.97
2023-05-08T05:54:17.579Z,68.00
2023-05-08T05:55:17.516Z,63.49
2023-05-08T05:56:17.564Z,65.10
2023-05-08T05:57:17.486Z,64.61
2023-05-08T05:58:17.525Z,61.39
2023-05-08T05:59:17.539Z,60.59
2023-05-08T06:00:17.438Z,60.10
2023-05-08T06:01:17.483Z,64.45
2023-05-08T06:02:17.625Z,62.84
2023-05-08T06:03:17.604Z,67.35
2023-05-08T06:04:17.484Z,61.23
2023-05-08T06:05:17.515Z,62.20
2023-05-08T06:06:17.404Z,68.16
2023-05-08T06:07:17.514Z,69.61
2023-05-08T06:08:17.393Z,67.35
2023-05-08T06:09:17.488Z,69.13
2023-05-08T06:10:17.398Z,71.22
2023-05-08T06:11:17.384Z,71.22
2023-05-08T06:12:17.350Z,58.01
2023-05-08T06:13:17.357Z,58.81
2023-05-08T06:14:17.373Z,61.71
2023-05-08T06:15:17.371Z,60.42
2023-05-08T06:16:17.507Z,68.48
2023-05-08T06:17:17.359Z,62.20
2023-05-08T06:18:17.318Z,67.19
2023-05-08T06:19:17.274Z,67.51
2023-05-08T06:20:17.267Z,68.32
2023-05-08T06:21:17.276Z,64.78
2023-05-08T06:22:17.230Z,59.46
2023-05-08T06:23:17.214Z,62.68
2023-05-08T06:24:17.253Z,64.13
2023-05-08T06:25:17.219Z,62.04
2023-05-08T06:26:17.174Z,61.23
2023-05-08T06:27:17.190Z,61.87
2023-05-08T06:28:17.187Z,67.35
2023-05-08T06:29:17.196Z,59.46
2023-05-08T06:30:17.143Z,60.59
2023-05-08T06:31:17.171Z,61.87
2023-05-08T06:32:17.193Z,65.26
2023-05-08T06:33:17.228Z,74.44
2023-05-08T06:34:17.141Z,64.61
2023-05-08T06:35:17.100Z,79.12
2023-05-08T06:36:17.087Z,79.60
2023-05-08T06:37:17.110Z,69.61
2023-05-08T06:38:17.116Z,76.38
2023-05-08T06:39:17.162Z,57.69
2023-05-08T06:40:17.119Z,61.87
2023-05-08T06:41:17.070Z,69.29
2023-05-08T06:42:17.090Z,69.45
2023-05-08T06:43:17.067Z,69.29
2023-05-08T06:44:17.128Z,65.26
2023-05-08T06:45:17.105Z,64.78
2023-05-08T06:46:17.057Z,64.61
2023-05-08T06:47:17.071Z,63.81
2023-05-08T06:48:16.995Z,63.16
2023-05-08T06:49:16.995Z,61.39
2023-05-08T06:50:16.968Z,63.81
2023-05-08T06:51:16.968Z,60.91
2023-05-08T06:52:17.027Z,61.39
2023-05-08T06:53:17.068Z,60.10
2023-05-08T06:54:16.919Z,64.13
2023-05-08T06:55:17.143Z,79.12
2023-05-08T06:56:17.191Z,78.79
2023-05-08T06:57:16.949Z,75.73
2023-05-08T06:58:16.934Z,79.28
2023-05-08T06:59:16.940Z,78.63
2023-05-08T07:00:16.863Z,79.60
2023-05-08T07:01:16.935Z,63.33
2023-05-08T07:02:16.846Z,63.00
2023-05-08T07:03:16.881Z,64.29
2023-05-08T07:04:16.908Z,71.22
2023-05-08T07:05:17.600Z,64.45
2023-05-08T07:06:16.832Z,67.84
2023-05-08T07:07:16.890Z,72.19
2023-05-08T07:08:16.786Z,63.00
2023-05-08T07:09:17.638Z,64.29
2023-05-08T07:10:16.882Z,64.61
2023-05-08T07:11:16.881Z,66.55
2023-05-08T07:12:16.826Z,64.94
2023-05-08T07:13:17.017Z,66.55
2023-05-08T07:14:16.734Z,72.35
2023-05-08T07:15:25.418Z,80.41
2023-05-08T07:16:16.831Z,81.21
2023-05-08T07:17:16.848Z,82.50
2023-05-08T07:18:16.701Z,82.18
2023-05-08T07:19:16.677Z,79.60
2023-05-08T07:20:16.667Z,79.44
2023-05-08T07:21:16.648Z,74.12
2023-05-08T07:22:16.708Z,76.70
2023-05-08T07:23:16.659Z,69.77
2023-05-08T07:24:16.695Z,70.42
2023-05-08T07:25:16.620Z,71.54
2023-05-08T07:26:16.636Z,76.86
2023-05-08T07:27:16.751Z,72.83
2023-05-08T07:28:16.566Z,79.60
2023-05-08T07:29:16.635Z,72.19
2023-05-08T07:30:16.555Z,77.67
2023-05-08T07:31:16.631Z,61.39
2023-05-08T07:32:16.589Z,61.39
2023-05-08T07:33:16.558Z,60.59
2023-05-08T07:34:16.709Z,66.71
2023-05-08T07:35:16.901Z,68.32
2023-05-08T07:36:17.495Z,66.55
2023-05-08T07:37:16.539Z,64.78
2023-05-08T07:38:16.568Z,67.84
2023-05-08T07:39:16.555Z,67.03
2023-05-08T07:40:16.499Z,59.14
2023-05-08T07:41:16.482Z,68.64
2023-05-08T07:42:17.221Z,63.00
2023-05-08T07:43:16.443Z,64.13
2023-05-08T07:44:16.409Z,63.33
2023-05-08T07:45:16.695Z,61.39
2023-05-08T07:46:16.500Z,71.54
2023-05-08T07:47:16.601Z,68.48
2023-05-08T07:48:16.393Z,59.78
2023-05-08T07:49:16.584Z,60.75
2023-05-08T07:50:16.504Z,62.68
2023-05-08T07:51:16.411Z,68.16
2023-05-08T07:52:16.327Z,62.04
2023-05-08T07:53:16.320Z,69.61
2023-05-08T07:54:16.584Z,62.52
2023-05-08T07:55:16.310Z,66.23
2023-05-08T07:56:16.305Z,63.16
2023-05-08T07:57:16.349Z,67.51
2023-05-08T07:58:16.305Z,62.68
2023-05-08T07:59:16.326Z,67.68
2023-05-08T08:00:16.348Z,69.77
2023-05-08T08:01:16.321Z,67.51
2023-05-08T08:02:16.356Z,65.58
2023-05-08T08:03:16.571Z,64.13
2023-05-08T08:04:16.374Z,64.78
2023-05-08T08:05:16.457Z,96.36
2023-05-08T08:06:16.714Z,60.26
2023-05-08T08:07:16.230Z,60.91
2023-05-08T08:08:16.204Z,60.42
2023-05-08T08:09:16.261Z,66.23
2023-05-08T08:10:16.278Z,61.55
2023-05-08T08:11:16.198Z,69.29
2023-05-08T08:12:16.725Z,63.33
2023-05-08T08:13:16.380Z,63.65
2023-05-08T08:14:16.142Z,62.84
2023-05-08T08:15:16.243Z,61.39
2023-05-08T08:16:16.128Z,62.52
2023-05-08T08:17:16.205Z,60.42
2023-05-08T08:18:16.173Z,67.68
2023-05-08T08:19:16.142Z,60.91
2023-05-08T08:20:16.392Z,58.65
2023-05-08T08:21:16.162Z,61.39
2023-05-08T08:22:16.037Z,56.88
2023-05-08T08:23:16.103Z,66.71
2023-05-08T08:24:16.875Z,64.13
2023-05-08T08:25:16.407Z,67.68
2023-05-08T08:26:16.108Z,64.78
2023-05-08T08:27:16.976Z,60.59
2023-05-08T08:28:15.971Z,54.30
2023-05-08T08:29:16.115Z,67.84
2023-05-08T08:30:18.263Z,65.10
2023-05-08T08:31:16.851Z,58.33
2023-05-08T08:32:15.991Z,66.23
2023-05-08T08:33:18.804Z,66.71
2023-05-08T08:34:15.965Z,57.20
2023-05-08T08:35:16.156Z,74.77
2023-05-08T08:36:16.032Z,72.35
2023-05-08T08:37:16.454Z,65.10
2023-05-08T08:38:15.926Z,58.33
2023-05-08T08:39:15.971Z,56.72
2023-05-08T08:40:15.938Z,60.10
2023-05-08T08:41:16.058Z,62.68
2023-05-08T08:42:15.943Z,69.77
2023-05-08T08:43:15.937Z,57.52
2023-05-08T08:44:15.908Z,66.55
2023-05-08T08:45:16.064Z,65.90
2023-05-08T08:46:15.899Z,60.75
2023-05-08T08:47:15.886Z,63.00
2023-05-08T08:48:15.785Z,65.74
2023-05-08T08:49:15.959Z,64.13
2023-05-08T08:50:15.801Z,61.87
2023-05-08T08:51:15.890Z,60.42
2023-05-08T08:52:15.773Z,69.61
2023-05-08T08:53:15.828Z,62.52
2023-05-08T08:54:15.871Z,62.04
2023-05-08T08:55:15.870Z,63.65
2023-05-08T08:56:15.746Z,62.52
2023-05-08T08:57:15.726Z,67.84
2023-05-08T08:58:15.745Z,60.59
2023-05-08T08:59:15.733Z,61.07
2023-05-08T09:00:15.756Z,67.19
2023-05-08T09:01:16.633Z,58.17
2023-05-08T09:02:15.929Z,63.00
2023-05-08T09:03:16.154Z,58.33
2023-05-08T09:04:15.747Z,70.09
2023-05-08T09:05:15.765Z,63.97
2023-05-08T09:06:15.704Z,61.07
2023-05-08T09:07:15.682Z,67.35
2023-05-08T09:08:15.791Z,72.67
2023-05-08T09:09:15.586Z,60.91
2023-05-08T09:10:15.614Z,56.72
2023-05-08T09:11:15.593Z,56.72
2023-05-08T09:12:15.786Z,60.42
2023-05-08T09:13:16.695Z,66.71
2023-05-08T09:14:15.623Z,61.87
2023-05-08T09:15:15.822Z,61.07
2023-05-08T09:16:15.608Z,59.46
2023-05-08T09:17:15.642Z,64.61
2023-05-08T09:18:15.516Z,61.55
2023-05-08T09:19:15.556Z,65.26
2023-05-08T09:20:15.880Z,60.42
2023-05-08T09:21:15.500Z,62.52
2023-05-08T09:22:15.582Z,68.96
2023-05-08T09:23:15.510Z,69.93
2023-05-08T09:24:15.557Z,63.65
2023-05-08T09:25:15.790Z,59.94
2023-05-08T09:26:15.433Z,59.94
2023-05-08T09:27:15.469Z,73.96
2023-05-08T09:28:15.464Z,75.89
2023-05-08T09:29:15.455Z,62.04
2023-05-08T09:30:15.411Z,69.61
2023-05-08T09:31:15.397Z,59.30
2023-05-08T09:32:15.493Z,68.48
2023-05-08T09:33:15.508Z,60.91
2023-05-08T09:34:15.364Z,72.99
2023-05-08T09:35:15.712Z,63.97
2023-05-08T09:36:15.389Z,70.09
2023-05-08T09:37:15.321Z,62.68
2023-05-08T09:38:15.369Z,71.06
2023-05-08T09:39:15.337Z,60.75
2023-05-08T09:40:15.323Z,71.87
2023-05-08T09:41:15.654Z,81.05
2023-05-08T09:42:15.333Z,77.67
2023-05-08T09:43:16.048Z,79.60
2023-05-08T09:44:15.390Z,77.34
2023-05-08T09:45:15.492Z,77.99
2023-05-08T09:46:15.286Z,60.10
2023-05-08T09:47:15.286Z,62.36
2023-05-08T09:48:15.191Z,59.46
2023-05-08T09:49:15.193Z,57.85
2023-05-08T09:50:15.366Z,65.74
2023-05-08T09:51:15.309Z,69.61
2023-05-08T09:52:15.304Z,65.10
2023-05-08T09:53:15.973Z,63.81
2023-05-08T09:54:15.186Z,65.10
2023-05-08T09:55:15.176Z,58.97
2023-05-08T09:56:15.125Z,60.75
2023-05-08T09:57:15.456Z,70.74
2023-05-08T09:58:15.849Z,63.49
2023-05-08T09:59:15.213Z,61.71
2023-05-08T10:00:15.389Z,65.74
2023-05-08T10:01:15.115Z,79.28
2023-05-08T10:02:15.269Z,79.28
2023-05-08T10:03:15.153Z,80.89
2023-05-08T10:04:15.151Z,76.70
2023-05-08T10:05:15.229Z,64.29
2023-05-08T10:06:15.000Z,63.00
2023-05-08T10:07:15.608Z,63.16
2023-05-08T10:08:15.227Z,76.86
2023-05-08T10:09:15.010Z,77.99
2023-05-08T10:10:15.105Z,66.87
2023-05-08T10:11:14.964Z,64.29
2023-05-08T10:12:15.289Z,64.78
2023-05-08T10:13:15.882Z,65.90
2023-05-08T10:14:14.932Z,61.07
2023-05-08T10:15:15.053Z,60.59
2023-05-08T10:16:14.998Z,61.55
2023-05-08T10:17:15.234Z,62.52
2023-05-08T10:18:17.719Z,65.90
2023-05-08T10:19:14.962Z,63.81
2023-05-08T10:20:15.105Z,64.94
2023-05-08T10:21:15.022Z,65.26
2023-05-08T10:22:15.105Z,63.65
2023-05-08T10:23:14.876Z,65.74
2023-05-08T10:24:15.621Z,68.64
2023-05-08T10:25:15.002Z,84.92
2023-05-08T10:26:16.211Z,78.96
2023-05-08T10:27:14.811Z,78.31
2023-05-08T10:28:14.817Z,78.31
2023-05-08T10:29:14.816Z,77.02
2023-05-08T10:30:14.950Z,77.99
2023-05-08T10:31:15.594Z,76.70
2023-05-08T10:32:14.767Z,63.81
2023-05-08T10:33:14.770Z,61.39
2023-05-08T10:34:14.763Z,66.23
2023-05-08T10:35:14.715Z,70.42
2023-05-08T10:36:14.994Z,61.71
2023-05-08T10:37:14.720Z,67.35
2023-05-08T10:38:14.848Z,70.58
2023-05-08T10:39:14.684Z,66.87
2023-05-08T10:40:14.907Z,60.26
2023-05-08T10:41:14.755Z,66.55
2023-05-08T10:42:14.670Z,63.49
2023-05-08T10:43:14.682Z,69.45
2023-05-08T10:44:14.634Z,62.04
2023-05-08T10:45:14.835Z,64.13
2023-05-08T10:46:14.704Z,69.93
2023-05-08T10:47:14.592Z,67.68
2023-05-08T10:48:14.665Z,62.68
2023-05-08T10:49:14.645Z,57.69
2023-05-08T10:50:14.913Z,62.36
2023-05-08T10:51:14.797Z,61.07
2023-05-08T10:52:14.640Z,67.51
2023-05-08T10:53:14.602Z,64.94
2023-05-08T10:54:14.517Z,69.13
2023-05-08T10:55:16.579Z,72.35
2023-05-08T10:56:14.655Z,68.48
2023-05-08T10:57:14.527Z,65.90
2023-05-08T10:58:15.577Z,62.20
2023-05-08T10:59:14.472Z,61.39
2023-05-08T11:00:16.316Z,70.74
2023-05-08T11:01:14.603Z,79.60
2023-05-08T11:02:14.757Z,64.45
2023-05-08T11:03:27.285Z,65.26
2023-05-08T11:04:14.505Z,65.26
2023-05-08T11:05:14.393Z,64.61
2023-05-08T11:06:14.457Z,65.26
2023-05-08T11:07:14.370Z,61.87
2023-05-08T11:08:14.392Z,67.84
2023-05-08T11:09:14.414Z,65.74
2023-05-08T11:10:14.535Z,76.38
2023-05-08T11:11:15.130Z,68.80
2023-05-08T11:12:14.447Z,67.51
2023-05-08T11:13:14.384Z,68.16
2023-05-08T11:14:14.484Z,69.61
2023-05-08T11:15:14.362Z,73.32
2023-05-08T11:16:14.336Z,67.68
2023-05-08T11:17:15.076Z,68.32
2023-05-08T11:18:14.392Z,71.87
2023-05-08T11:19:14.647Z,68.32
2023-05-08T11:20:14.477Z,67.51
2023-05-08T11:21:20.336Z,69.13
2023-05-08T11:22:14.334Z,61.07
2023-05-08T11:23:14.315Z,60.26
2023-05-08T11:24:14.358Z,60.59
2023-05-08T11:25:14.246Z,63.33
2023-05-08T11:26:14.188Z,62.68
2023-05-08T11:27:14.175Z,63.81
2023-05-08T11:28:14.182Z,57.36
2023-05-08T11:29:14.143Z,60.10
2023-05-08T11:30:14.552Z,62.20
2023-05-08T11:31:14.151Z,56.07
2023-05-08T11:32:14.136Z,62.20
2023-05-08T11:33:14.184Z,70.09
2023-05-08T11:34:14.138Z,64.45
2023-05-08T11:35:14.149Z,60.26
2023-05-08T11:36:14.131Z,60.42
2023-05-08T11:37:14.486Z,58.33
2023-05-08T11:38:14.104Z,56.07
2023-05-08T11:39:14.062Z,65.10
2023-05-08T11:40:14.232Z,65.10
2023-05-08T11:41:14.112Z,59.14
2023-05-08T11:42:14.124Z,59.94
2023-05-08T11:43:13.991Z,63.33
2023-05-08T11:44:14.808Z,58.81
2023-05-08T11:45:14.322Z,70.09
2023-05-08T11:46:13.960Z,60.42
2023-05-08T11:47:14.158Z,60.26
2023-05-08T11:48:13.959Z,66.71
2023-05-08T11:49:13.954Z,56.07
2023-05-08T11:50:14.486Z,66.23
2023-05-08T11:51:14.036Z,67.35
2023-05-08T11:52:13.893Z,58.01
2023-05-08T11:53:13.895Z,61.07
2023-05-08T11:54:13.914Z,63.00
2023-05-08T11:55:13.892Z,60.42
2023-05-08T11:56:14.058Z,61.07
2023-05-08T11:57:13.910Z,66.71
2023-05-08T11:58:13.909Z,60.42
2023-05-08T11:59:14.027Z,64.94
2023-05-08T12:00:15.832Z,72.83
2023-05-08T12:01:14.225Z,62.52
2023-05-08T12:02:15.101Z,71.06
2023-05-08T12:03:13.957Z,66.71
2023-05-08T12:04:13.870Z,70.90
2023-05-08T12:05:13.829Z,70.58
2023-05-08T12:06:13.848Z,61.39
2023-05-08T12:07:13.771Z,60.59
2023-05-08T12:08:13.758Z,73.64
2023-05-08T12:09:13.800Z,65.90
2023-05-08T12:10:14.311Z,66.06
2023-05-08T12:11:14.356Z,58.81
2023-05-08T12:12:13.767Z,61.39
2023-05-08T12:13:13.839Z,58.01
2023-05-08T12:14:13.761Z,69.77
2023-05-08T12:15:13.783Z,62.04
2023-05-08T12:16:13.693Z,60.75
2023-05-08T12:17:13.803Z,61.71
2023-05-08T12:18:13.750Z,62.68
2023-05-08T12:19:13.695Z,67.84
2023-05-08T12:20:13.894Z,63.16
2023-05-08T12:21:14.505Z,59.30
2023-05-08T12:22:14.416Z,61.23
2023-05-08T12:23:13.824Z,68.80
2023-05-08T12:24:13.655Z,64.78
2023-05-08T12:25:13.938Z,57.52
2023-05-08T12:26:13.711Z,61.71
2023-05-08T12:27:13.671Z,66.06
2023-05-08T12:28:14.372Z,75.73
2023-05-08T12:29:13.689Z,59.46
2023-05-08T12:30:14.907Z,62.20
2023-05-08T12:31:13.640Z,63.33
2023-05-08T12:32:13.559Z,66.87
2023-05-08T12:33:14.004Z,69.29
2023-05-08T12:34:13.973Z,66.39
2023-05-08T12:35:13.769Z,69.45
2023-05-08T12:36:13.568Z,65.74
2023-05-08T12:37:13.508Z,64.13
2023-05-08T12:38:13.608Z,61.23
2023-05-08T12:39:13.514Z,68.32
2023-05-08T12:40:13.886Z,61.23
2023-05-08T12:41:13.758Z,67.35
2023-05-08T12:42:13.450Z,61.23
2023-05-08T12:43:13.353Z,57.36
2023-05-08T12:44:13.726Z,63.49
2023-05-08T12:45:13.438Z,60.42
2023-05-08T12:46:13.371Z,58.65
2023-05-08T12:47:13.406Z,62.04
2023-05-08T12:48:13.539Z,59.30
2023-05-08T12:49:13.373Z,60.75
2023-05-08T12:50:13.472Z,62.20
2023-05-08T12:51:13.309Z,65.26
2023-05-08T12:52:13.348Z,64.78